My Meet Scores
Alyssa Blanchette, Patti Dunne's School Of Gymnastics - MyMeetScores.com
Top100 | Top Teams | Upcoming Meets | Completed Meets | Latest | Add Scores | Help| Support | Bookmark and Share

Alyssa Blanchette, Patti Dunne's School Of Gymnastics
Personal Bests
LevelVault BarsBeamFloorAA
39.5009.100 9.3009.35036.300
49.3508.950 9.4009.10036.225
59.1509.150 8.8509.10035.225
Meet Scores
Date Meet Team Session Level Division Vault Bars Beam Floor AA
2019-02-15 Presidential Classic Patti Dunne's School Of Gymnastics B12 5 L5_Grp2 8.625 10 8.675 7 8.725 12 8.825 12 34.850 8
2019-02-08 Team Challenge 2019 Patti Dunne's School Of Gymnastics B4 5 Jr B 8.775 11 9.150 2 8.200 13T 9.100 5 35.225 8
2019-02-01 State Level 4&5 Patti Dunne's School Of Gymnastics 6 5 10 Yrs 9.150 13T 8.500 23 8.050 31T 9.000 15T 34.700 19T
2019-01-26 Manhattan Classic Patti Dunne's School Of Gymnastics 5CP 5 Junior A 8.650 11 9.050 4T 8.450 11 8.850 6 35.000 7
2019-01-18 DGS Northeast Invite Patti Dunne's School Of Gymnastics 5A 5 Ch B 9.050 1 8.650 4 8.650 5 8.150 9 34.500 4
2019-01-10 Little Boston Invitational Patti Dunne's School Of Gymnastics D04 5 INT 8.550 20T 7.550 23T 7.750 30 8.700 15T 32.550 32
2018-12-14 Shen's New England Classic Patti Dunne's School Of Gymnastics 01 5 CH B 8.500 9 7.250 14 8.100 11 8.150 13 32.000 13
2018-12-08 American Gymnastics Invitational Patti Dunne's School Of Gymnastics 6 5 Child A 8.550 8 8.350 3 8.850 2 8.550 8 34.300 3
2018-11-17 2018 Connecticut Judge's Cup Patti Dunne's School Of Gymnastics 5 5 8-10 yrs. 8.550 28T 7.750 25* 8.225 39 7.800 56T 32.325 39T
2018-02-16 Chelsea Piers Winter Challenge Patti Dunne's School Of Gymnastics F-4 4 Junior 9.275 5T 8.450 10T 9.400 2T 9.100 6T 36.225 6
2018-02-09 Team Challenge 2018 Patti Dunne's School Of Gymnastics 08B 4 Jr B 9.350 3 8.700 7 8.925 9 9.050 6T 36.025 5
2018-02-03 Level 4 & 5 States Patti Dunne's School Of Gymnastics 2 4 9 D 9.000 21T 8.100 43T 8.150 60 8.950 23 34.200 46
2018-01-19 Kinetic Kids Invitational Patti Dunne's School Of Gymnastics 2 4 Jr B 9.300 2 8.600 7 8.400 10 8.700 8 35.000 7
2018-01-12 DGS Invitational Patti Dunne's School Of Gymnastics 5B 4 8-9 yrs. 9.150 1 8.350 4 8.900 3 8.650 8 35.050 4
2017-11-30 Rhode Island Invitational Patti Dunne's School Of Gymnastics BF1 4 Intermedia 8.725 3 8.500 5 8.975 3 9.000 4 35.200 4
2017-02-18 Chelsea Piers Winter Challenge Patti Dunne's School Of Gymnastics C-6 4 CH 8.200 5 7.700 12 9.000 11 8.750 10 33.650 9
2017-02-10 Team Challenge 2017 Patti Dunne's School Of Gymnastics 02B 4 Child 8.650 2T 8.700 2T 9.325 4 8.325 13 35.000 3T
2017-02-04 2017 Connecticut Level 4 & 5 State Meets Patti Dunne's School Of Gymnastics 3 4 8 B 8.825 4T 8.250 5T 9.100 4 8.450 10 34.625 5
2017-01-27 24th Annual American Invitational Patti Dunne's School Of Gymnastics 5B 4 Child 8.150 18T 8.950 19 8.350 21 8.050 21 33.500 22
2017-01-13 Northeast Invitational Patti Dunne's School Of Gymnastics 5 4 7-8 yrs. 8.550 4T 8.750 4 8.900 3T 8.650 7 34.850 3
2016-12-02 Rhode Island Invitational Patti Dunne's School Of Gymnastics SF2 4 Child 8.150 11 7.800 10 8.500 10 8.625 11 33.075 11
2016-11-05 2016 Connecticut Judges Cup Patti Dunne's School Of Gymnastics 5 4 AllAges 8.050 25T 8.300 25T 7.725 39 7.700 35T 31.775 36
2016-04-02 2016 Connecticut Level 6 States & Level 3 State Cup Patti Dunne's School Of Gymnastics 7 3 N/A 9.000 34T 8.650 21T 8.850 6 9.350 2T 35.850 6
2016-02-13 Chelsea Piers Winter Challenge Patti Dunne's School Of Gymnastics F5 3 CH A 9.000 1 9.100 10T 8.825 5 9.125 2T 36.050 4
2016-01-22 Sand Dollar/Whitlow Invitational Patti Dunne's School Of Gymnastics A03 3 Jr A 9.075 7 8.850 7T 8.500 5T 8.925 7 35.350 6
2016-01-15 DGS Invitational Patti Dunne's School Of Gymnastics A11 3 6-7 yrs. 9.500 1 8.400 5T 9.300 4 9.100 1 36.300 3
2015-12-04 Rhode Island Invitational Patti Dunne's School Of Gymnastics WS3 3 Child 9.250 2 7.875 10 8.850 3 8.900 2 34.875 4
2015-11-21 Pilgrim Invitational Patti Dunne's School Of Gymnastics 6 3 Child 9.300 3 8.450 2T 9.200 4 9.050 3T 36.000 2
2015-02-13 Team Challege 2015 Patti Dunne's School Of Gymnastics B1 3 Junior 8.350 12T 7.250 14 8.775 8 8.350 10 32.725 13
Get your scores on
a t-shirt, pin, or hoodie

www.lazysuits.com